AirNav   Pilot Hours Calculator
 
 651 users online  

UT44 Davis Hospital & Medical Center Heliport
Layton, Utah, USA

GOING TO LAYTON?


FAA INFORMATION EFFECTIVE 02 JANUARY 2020

Location

FAA Identifier: UT44
Lat/Long: 41-05-30.5900N 111-59-45.3500W
41-05.509833N 111-59.755833W
41.0918306,-111.9959306
(estimated)
Elevation: 4300 ft. / 1311 m (estimated)
Variation: 15E (1985)
Time zone: UTC -7 (UTC -6 during Daylight Saving Time)
Zip code: 84041

Heliport Operations

Heliport use: Private use, MEDICAL USE.
Activation date: 03/1981
Control tower: no
ARTCC: SALT LAKE CITY CENTER
FSS: CEDAR CITY FLIGHT SERVICE STATION
Attendance: UNATNDD
Wind indicator: lighted
Segmented circle: no
Lights: SS-SR

Heliport Communications

WX ASOS at OGD (6 nm N): PHONE 801-622-5600
WX ASOS at SLC (18 nm S): PHONE 801-328-3567

Nearby radio navigation aids

VOR radial/distance  VOR name  Freq  Var
OGDr136/9.2OGDEN VORTAC115.7014E
TCHr341/14.5WASATCH VORTAC116.8016E

Heliport Services

Runway Information

Helipad H1

Dimensions: 75 x 75 ft. / 23 x 23 m
Surface: concrete
Runway edge lights: PERI
AND FLOOD LGTS.
Latitude: 41-05.509833N
Longitude: 111-59.755833W
Elevation: 4300.0 ft.
Traffic pattern: leftleft

Heliport Ownership and Management from official FAA records

Ownership: Privately-owned
Owner: DAVIS HOSP & MED CENTER
1600 WEST ANTELOPE DRIVE
LAYTON, UT 84041
Phone 801-807-1000
Manager: MIKE JENSEN
1600 WEST ANTELOPE DRIVE
LAYTON, UT 84041
Phone (801) 807-7006

Heliport Operational Statistics

Aircraft based on the field: 1
Helicopters: 1
    

Additional Remarks

FOR CD CTC SALT LAKE CITY APCH AT 801-325-9670.

Instrument Procedures

There are no published instrument procedures at UT44.

Some nearby airports with instrument procedures:

KHIF - Hill Air Force Base (2 nm NE)
KOGD - Ogden-Hinckley Airport (6 nm N)
KSLC - Salt Lake City International Airport (18 nm S)
KBMC - Brigham City Regional Airport (28 nm N)
U42 - South Valley Regional Airport (28 nm S)
 
Loc | Ops | Rwys | IFR | FBO | Links
Com | Nav | Svcs | Stats | Notes
Area around UT44 (Davis Hospital & Medical Center Heliport)
 
Road maps at: MapQuest Bing Google
 
Aerial photo
No photo
 
Sectional chart

 
Airport distance calculator
Flying to Davis Hospital & Medical Center Heliport? Find the distance to fly.

From to UT44

Sunrise and sunset
Times for 19-Jan-2020
 Local
(UTC-7)
 Zulu
(UTC)
Morning civil twilight07:2014:20
Sunrise07:5014:50
Sunset17:2800:28
Evening civil twilight17:5800:58

Current date and time
Zulu (UTC)  19-Jan-2020 10:46:17
Local (UTC-7)  19-Jan-2020 03:46:17
 
METAR
KHIF 
2nm NE 
190958Z AUTO 11015KT 10SM CLR M07/M12 A3049 RMK AO2 SLP349 T10681117 $
KOGD 
7nm N 
190953Z AUTO 17003KT 10SM CLR M06/M12 A3050 RMK AO2 SLP347 T10561122
KSLC 
19nm S 
190954Z 16004KT 10SM CLR M04/M06 A3051 RMK AO2 SLP347 I1000 T10441061
TAF
KHIF 
2nm NE 
182200Z 1822/2004 08006KT 9999 FEW100 QNH3041INS BECMG 1907/1908 11009KT 9999 SKC QNH3050INS TX05/1822Z TNM04/1911Z LAST NO AMDS AFT 1900 NEXT 1914
KOGD 
7nm N 
190543Z 1906/2006 17006KT P6SM FEW100 FM190700 17005KT P6SM FEW100 FM191800 33006KT P6SM SCT250
KSLC 
19nm S 
190543Z 1906/2012 15005KT P6SM SCT150 SCT200 FM191800 33005KT P6SM SCT200 FM200200 15005KT P6SM SCT200
NOTAMs
Click for the latest NOTAMs
NOTAMs are issued by the DoD/FAA and will open in a separate window not controlled by AirNav.

 

 
 

Would you like to see your business listed on this page?

 If your business provides an interesting product or service to pilots, flight crews, aircraft, or users of the Davis Hospital & Medical Center Heliport, you should consider listing it here.  To start the listing process, click on the button below
 
Add a business
 

Other Pages about Davis Hospital & Medical Center Heliport

Update a link
 
Copyright © AirNav, LLC. All rights reserved. Privacy Policy  Contact